Terminal Aerodrome Forecast
Issued by NWS Wilmington, OH

Home | Current Version | Previous Version | Text Only | Print | Product List | Glossary On
Versions: 1 2 3 4 5 6 7 8 9 10 11 12 13 14 15 16 17 18 19 20 21 22 23 24 25
000
FTUS41 KILN 091739
TAFCVG
TAF
KCVG 091739Z 0918/1024 27009KT P6SM -SHSN OVC025
     FM092000 28009KT P6SM OVC035
     FM100000 28005KT P6SM BKN035
     FM101200 25004KT P6SM BKN080
     FM102000 20004KT P6SM SCT150=

USA.gov is the U.S. government's official web portal to all federal, state and local government web resources and services.